Nur fliegen ist schöner ....

Willkommen beim Flugservice Bautzen GmbH

Wir sind eine nach europäischen Richtlinien zugelassene Flugschule und lizenziertes Luftfahrtunternehmen. Bei uns können sie nicht nur Rundflüge über die Oberlausitz oder Sachsen buchen, sondern in unserer Flugschule selber das Fliegen erlernen. Erfahrene Fluglehrer stehen Ihnen dabei zur Seite.

Wir bieten Ihnen außerdem spezielle Flüge zur Vermessung oder Fotoflüge für Luftbildaufnahmen an. In Zusammenarbeit mit dem Fallschirmsportclub Dresden und dem Cottbuser Fallschirmsportclub setzen wir am Flugplatz Bautzen und Neuhausen Fallschirmspringer ab.
Schauen Sie sich in Ruhe bei uns um und wenn Sie Fragen haben oder weitere Informationen benötigen, scheuen Sie sich nicht Kontakt mit uns aufzunehmen.

Gutscheine für Rundflüge und Tandemsprünge können Sie ganz leicht auch online in unserem Shop erwerben.

Terminkalender

Letzter Monat April 2020 Nächster Monat
Mo Di Mi Do Fr Sa So
week 14 1 2 3 4 5
week 15 6 7 8 9 10 11 12
week 16 13 14 15 16 17 18 19
week 17 20 21 22 23 24 25 26
week 18 27 28 29 30

Flugwetterinfo

[Quelle: ADDS]
METAR
EDDC 020350Z 19005KT CAVOK M02/M06 Q1014 =
EDDC 012300Z 0200/0224 VRB03KT CAVOK BECMG 0206/0209 24008KT BECMG 0215/0218 24003KT
TAF
EDDC 012300Z 0200/0224 VRB03KT CAVOK BECMG 0206/0209 24008KT BECMG 0215/0218 24003KT =
SR / SS: 04:33 / 17:36 UTC (EDAB Flugplatz Bautzen 2020-04-02)

Öffnungszeiten

des Flugplatzes Bautzen erfahren Sie hier:

flugplatz bautzen logo
Flugservice Bautzen GmbH, Kornmarkt 34, 02625 Bautzen  Telefon: +49 (3591) 211105, Telefax: +49 (3591) 274512, E-Mail:  flugservice(at)fsbautzen.de